createdAt,value
2023-04-24T00:01:35.142Z,99448.90
2023-04-24T00:04:02.913Z,99445.27
2023-04-24T00:06:35.456Z,99447.36
2023-04-24T00:09:02.260Z,99446.27
2023-04-24T00:11:29.518Z,99446.23
2023-04-24T00:13:56.909Z,99443.29
2023-04-24T00:16:24.589Z,99438.27
2023-04-24T00:18:53.794Z,99439.35
2023-04-24T00:21:20.564Z,99433.74
2023-04-24T00:23:47.252Z,99430.85
2023-04-24T00:26:13.975Z,99427.83
2023-04-24T00:28:40.782Z,99425.19
2023-04-24T00:31:08.253Z,99422.34
2023-04-24T00:33:34.889Z,99422.52
2023-04-24T00:36:01.415Z,99419.42
2023-04-24T00:38:27.932Z,99419.73
2023-04-24T00:40:55.127Z,99419.34
2023-04-24T00:43:21.761Z,99418.91
2023-04-24T00:45:48.592Z,99420.69
2023-04-24T00:48:15.767Z,99421.91
2023-04-24T00:50:43.272Z,99424.27
2023-04-24T00:53:09.863Z,99422.48
2023-04-24T00:55:38.265Z,99417.74
2023-04-24T00:58:05.845Z,99421.58
2023-04-24T01:00:32.722Z,99416.15
2023-04-24T01:03:02.988Z,99411.21
2023-04-24T01:05:29.680Z,99412.51
2023-04-24T01:07:57.045Z,99406.73
2023-04-24T01:10:25.279Z,99410.59
2023-04-24T01:12:53.159Z,99411.90
2023-04-24T01:15:22.009Z,99409.09
2023-04-24T01:17:48.588Z,99408.07
2023-04-24T01:20:16.719Z,99402.17
2023-04-24T01:22:43.343Z,99403.25
2023-04-24T01:25:10.533Z,99404.77
2023-04-24T01:27:37.071Z,99411.28
2023-04-24T01:30:06.921Z,99408.09
2023-04-24T01:32:34.074Z,99403.11
2023-04-24T01:35:01.076Z,99397.39
2023-04-24T01:37:27.994Z,99396.23
2023-04-24T01:39:54.894Z,99395.11
2023-04-24T01:42:21.463Z,99395.15
2023-04-24T01:44:48.156Z,99387.54
2023-04-24T01:47:14.810Z,99383.48
2023-04-24T01:49:41.777Z,99381.63
2023-04-24T01:52:08.642Z,99384.16
2023-04-24T01:54:35.241Z,99385.04
2023-04-24T01:57:03.620Z,99381.98
2023-04-24T01:59:30.944Z,99381.27
2023-04-24T02:01:57.485Z,99382.38
2023-04-24T02:04:24.077Z,99383.42
2023-04-24T02:06:51.076Z,99383.27
2023-04-24T02:09:17.689Z,99379.28
2023-04-24T02:11:44.810Z,99375.01
2023-04-24T02:14:11.470Z,99378.09
2023-04-24T02:16:52.324Z,99380.81
2023-04-24T02:19:18.920Z,99372.11
2023-04-24T02:21:45.421Z,99366.97
2023-04-24T02:24:11.966Z,99371.73
2023-04-24T02:26:38.520Z,99371.23
2023-04-24T02:29:05.184Z,99373.81
2023-04-24T02:31:31.738Z,99368.16
2023-04-24T02:33:58.304Z,99363.16
2023-04-24T02:36:24.908Z,99355.61
2023-04-24T02:38:51.438Z,99353.27
2023-04-24T02:41:18.082Z,99350.44
2023-04-24T02:43:44.663Z,99348.89
2023-04-24T02:46:11.313Z,99343.23
2023-04-24T02:48:38.021Z,99340.95
2023-04-24T02:51:05.208Z,99342.40
2023-04-24T02:53:31.844Z,99342.85
2023-04-24T02:55:58.431Z,99345.92
2023-04-24T02:58:25.977Z,99349.56
2023-04-24T03:00:57.032Z,99357.16
2023-04-24T03:03:24.004Z,99358.17
2023-04-24T03:05:51.326Z,99350.50
2023-04-24T03:08:18.594Z,99352.70
2023-04-24T03:10:46.263Z,99354.69
2023-04-24T03:13:17.703Z,99354.85
2023-04-24T03:15:44.412Z,99352.04
2023-04-24T03:18:11.037Z,99348.47
2023-04-24T03:20:38.613Z,99353.46
2023-04-24T03:23:05.467Z,99351.23
2023-04-24T03:25:32.423Z,99349.10
2023-04-24T03:27:59.127Z,99348.33
2023-04-24T03:30:35.793Z,99348.17
2023-04-24T03:33:02.995Z,99348.00
2023-04-24T03:35:31.332Z,99345.79
2023-04-24T03:38:00.632Z,99346.23
2023-04-24T03:40:39.209Z,99350.23
2023-04-24T03:43:13.481Z,99352.95
2023-04-24T03:45:40.012Z,99354.22
2023-04-24T03:48:07.100Z,99352.42
2023-04-24T03:50:33.625Z,99348.23
2023-04-24T03:53:00.543Z,99342.90
2023-04-24T03:55:34.878Z,99342.89
2023-04-24T03:58:01.827Z,99344.27
2023-04-24T04:00:28.874Z,99345.27
2023-04-24T04:03:03.624Z,99346.39
2023-04-24T04:05:30.975Z,99342.70
2023-04-24T04:07:57.764Z,99343.84
2023-04-24T04:10:24.704Z,99342.91
2023-04-24T04:12:51.256Z,99348.60
2023-04-24T04:15:17.865Z,99347.83
2023-04-24T04:17:44.598Z,99343.27
2023-04-24T04:20:11.826Z,99342.94
2023-04-24T04:22:39.167Z,99342.77
2023-04-24T04:25:09.417Z,99346.88
2023-04-24T04:27:36.240Z,99352.52
2023-04-24T04:30:06.766Z,99352.70
2023-04-24T04:32:40.126Z,99353.92
2023-04-24T04:35:07.115Z,99355.02
2023-04-24T04:37:34.422Z,99357.84
2023-04-24T04:40:13.386Z,99360.98
2023-04-24T04:42:48.586Z,99358.22
2023-04-24T04:45:17.965Z,99366.40
2023-04-24T04:48:01.795Z,99371.02
2023-04-24T04:50:29.423Z,99371.95
2023-04-24T04:52:57.827Z,99367.11
2023-04-24T04:55:28.347Z,99362.30
2023-04-24T04:58:08.165Z,99362.77
2023-04-24T05:00:36.816Z,99364.73
2023-04-24T05:03:20.125Z,99363.20
2023-04-24T05:05:50.762Z,99363.30
2023-04-24T05:08:26.496Z,99358.66
2023-04-24T05:10:54.829Z,99354.97
2023-04-24T05:13:31.723Z,99356.44
2023-04-24T05:15:59.391Z,99350.90
2023-04-24T05:18:26.508Z,99353.55
2023-04-24T05:20:53.477Z,99350.45
2023-04-24T05:23:20.478Z,99353.33
2023-04-24T05:25:52.233Z,99351.39
2023-04-24T05:28:20.004Z,99350.09
2023-04-24T05:30:51.937Z,99348.77
2023-04-24T05:33:18.795Z,99350.39
2023-04-24T05:35:48.034Z,99348.99
2023-04-24T05:38:18.653Z,99350.27
2023-04-24T05:40:45.425Z,99347.79
2023-04-24T05:43:12.031Z,99343.76
2023-04-24T05:45:39.552Z,99342.70
2023-04-24T05:48:06.859Z,99342.11
2023-04-24T05:50:34.895Z,99341.96
2023-04-24T05:53:03.866Z,99342.92
2023-04-24T05:55:33.792Z,99342.98
2023-04-24T05:58:00.781Z,99341.55
2023-04-24T06:00:27.894Z,99337.66
2023-04-24T06:03:00.116Z,99336.55
2023-04-24T06:05:27.617Z,99334.34
2023-04-24T06:07:54.566Z,99335.05
2023-04-24T06:10:23.070Z,99331.94
2023-04-24T06:12:50.614Z,99333.37
2023-04-24T06:15:17.905Z,99330.69
2023-04-24T06:17:57.677Z,99333.38
2023-04-24T06:20:25.118Z,99333.57
2023-04-24T06:22:51.864Z,99332.86
2023-04-24T06:25:19.074Z,99331.65
2023-04-24T06:27:45.919Z,99330.57
2023-04-24T06:30:12.906Z,99331.54
2023-04-24T06:32:39.504Z,99331.05
2023-04-24T06:35:08.415Z,99329.17
2023-04-24T06:37:35.031Z,99320.84
2023-04-24T06:40:01.933Z,99319.56
2023-04-24T06:42:28.516Z,99320.32
2023-04-24T06:44:55.988Z,99315.70
2023-04-24T06:47:22.705Z,99311.98
2023-04-24T06:49:51.794Z,99313.89
2023-04-24T06:52:18.418Z,99313.09
2023-04-24T06:54:45.005Z,99312.64
2023-04-24T06:57:11.749Z,99314.62
2023-04-24T06:59:39.129Z,99314.45
2023-04-24T07:02:05.991Z,99311.92
2023-04-24T07:04:32.810Z,99315.21
2023-04-24T07:06:59.519Z,99311.70
2023-04-24T07:09:27.942Z,99311.60
2023-04-24T07:11:54.934Z,99309.67
2023-04-24T07:14:21.706Z,99311.03
2023-04-24T07:16:48.524Z,99310.27
2023-04-24T07:19:15.861Z,99307.39
2023-04-24T07:21:42.418Z,99310.05
2023-04-24T07:24:12.002Z,99306.29
2023-04-24T07:26:40.077Z,99306.64
2023-04-24T07:29:07.635Z,99302.83
2023-04-24T07:31:34.717Z,99305.19
2023-04-24T07:34:01.828Z,99304.46
2023-04-24T07:36:29.034Z,99302.56
2023-04-24T07:38:57.398Z,99301.23
2023-04-24T07:41:25.366Z,99300.50
2023-04-24T07:43:53.591Z,99292.51
2023-04-24T07:46:21.425Z,99294.02
2023-04-24T07:48:58.649Z,99291.48
2023-04-24T07:51:28.760Z,99281.85
2023-04-24T07:53:58.315Z,99277.38
2023-04-24T07:56:26.284Z,99274.10
2023-04-24T07:58:54.517Z,99278.45
2023-04-24T08:01:21.079Z,99272.63
2023-04-24T08:03:47.768Z,99268.63
2023-04-24T08:06:14.585Z,99269.50
2023-04-24T08:08:41.569Z,99271.80
2023-04-24T08:11:08.221Z,99269.31
2023-04-24T08:13:34.954Z,99270.63
2023-04-24T08:16:01.634Z,99267.17
2023-04-24T08:18:28.645Z,99269.64
2023-04-24T08:20:55.396Z,99263.64
2023-04-24T08:23:23.080Z,99263.13
2023-04-24T08:25:49.968Z,99265.08
2023-04-24T08:28:21.094Z,99260.97
2023-04-24T08:30:48.776Z,99263.85
2023-04-24T08:33:16.173Z,99261.23
2023-04-24T08:35:42.819Z,99261.52
2023-04-24T08:38:09.461Z,99259.05
2023-04-24T08:40:36.619Z,99256.58
2023-04-24T08:43:04.665Z,99258.34
2023-04-24T08:45:31.723Z,99255.80
2023-04-24T08:47:59.403Z,99258.25
2023-04-24T08:50:26.574Z,99253.88
2023-04-24T08:52:54.568Z,99248.09
2023-04-24T08:55:22.281Z,99250.94
2023-04-24T08:57:56.891Z,99251.46
2023-04-24T09:00:23.598Z,99253.01
2023-04-24T09:02:51.712Z,99250.30
2023-04-24T09:05:19.958Z,99255.77
2023-04-24T09:07:57.300Z,99253.34
2023-04-24T09:10:27.266Z,99245.50
2023-04-24T09:12:55.414Z,99248.83
2023-04-24T09:15:22.538Z,99242.54
2023-04-24T09:17:49.204Z,99245.98
2023-04-24T09:20:16.559Z,99246.61
2023-04-24T09:22:44.614Z,99242.54
2023-04-24T09:25:13.755Z,99236.94
2023-04-24T09:27:47.439Z,99238.44
2023-04-24T09:30:15.195Z,99233.03
2023-04-24T09:32:42.875Z,99227.63
2023-04-24T09:35:11.393Z,99231.71
2023-04-24T09:37:49.864Z,99234.79
2023-04-24T09:40:22.007Z,99234.34
2023-04-24T09:42:58.799Z,99240.61
2023-04-24T09:45:38.932Z,99235.70
2023-04-24T09:48:07.455Z,99233.05
2023-04-24T09:50:35.569Z,99232.88
2023-04-24T09:53:04.790Z,99228.39
2023-04-24T09:55:32.984Z,99223.05
2023-04-24T09:58:06.442Z,99223.88
2023-04-24T10:00:34.110Z,99226.05
2023-04-24T10:03:04.520Z,99225.45
2023-04-24T10:05:36.746Z,99222.51
2023-04-24T10:08:10.416Z,99220.38
2023-04-24T10:10:43.875Z,99219.66
2023-04-24T10:13:11.979Z,99221.02
2023-04-24T10:15:39.993Z,99223.09
2023-04-24T10:18:08.622Z,99223.08
2023-04-24T10:20:38.074Z,99224.77
2023-04-24T10:23:05.418Z,99224.84
2023-04-24T10:25:34.890Z,99222.17
2023-04-24T10:28:02.552Z,99220.65
2023-04-24T10:30:32.055Z,99211.85
2023-04-24T10:32:58.812Z,99213.38
2023-04-24T10:35:27.879Z,99210.94
2023-04-24T10:38:02.582Z,99208.56
2023-04-24T10:40:34.946Z,99204.48
2023-04-24T10:43:11.549Z,99206.90
2023-04-24T10:45:39.344Z,99205.95
2023-04-24T10:48:12.044Z,99204.84
2023-04-24T10:50:45.106Z,99203.80
2023-04-24T10:53:18.239Z,99197.91
2023-04-24T10:56:06.796Z,99195.84
2023-04-24T10:58:45.227Z,99196.98
2023-04-24T11:01:29.580Z,99191.48
2023-04-24T11:03:58.549Z,99193.64
2023-04-24T11:06:33.278Z,99187.91
2023-04-24T11:09:07.206Z,99193.70
2023-04-24T11:11:35.508Z,99193.45
2023-04-24T11:14:05.331Z,99188.08
2023-04-24T11:16:42.787Z,99178.70
2023-04-24T11:19:17.370Z,99179.79
2023-04-24T11:21:46.685Z,99183.36
2023-04-24T11:24:26.819Z,99178.44
2023-04-24T11:26:59.205Z,99168.31
2023-04-24T11:29:48.748Z,99170.42
2023-04-24T11:32:26.553Z,99166.86
2023-04-24T11:34:54.670Z,99164.86
2023-04-24T11:37:22.666Z,99168.36
2023-04-24T11:39:52.920Z,99163.16
2023-04-24T11:42:20.923Z,99159.08
2023-04-24T11:44:48.896Z,99163.52
2023-04-24T11:47:15.623Z,99161.14
2023-04-24T11:49:42.590Z,99163.29
2023-04-24T11:52:09.194Z,99162.50
2023-04-24T11:54:35.910Z,99159.36
2023-04-24T11:57:07.010Z,99155.30
2023-04-24T11:59:38.371Z,99149.13
2023-04-24T12:02:05.794Z,99147.39
2023-04-24T12:04:41.146Z,99145.44
2023-04-24T12:07:11.720Z,99141.11
2023-04-24T12:09:47.678Z,99135.97
2023-04-24T12:12:16.844Z,99137.91
2023-04-24T12:15:10.305Z,99135.27
2023-04-24T12:17:39.912Z,99129.77
2023-04-24T12:20:09.733Z,99131.52
2023-04-24T12:22:49.169Z,99130.10
2023-04-24T12:25:17.798Z,99126.53
2023-04-24T12:27:52.748Z,99123.24
2023-04-24T12:30:19.316Z,99125.13
2023-04-24T12:32:48.370Z,99120.73
2023-04-24T12:35:21.742Z,99112.14
2023-04-24T12:37:48.415Z,99109.34
2023-04-24T12:40:15.942Z,99113.23
2023-04-24T12:42:44.624Z,99111.39
2023-04-24T12:45:13.327Z,99107.55
2023-04-24T12:47:41.352Z,99110.01
2023-04-24T12:50:13.103Z,99104.73
2023-04-24T12:52:40.483Z,99097.77
2023-04-24T12:55:11.315Z,99088.45
2023-04-24T12:57:40.092Z,99088.54
2023-04-24T13:00:09.312Z,99093.22
2023-04-24T13:02:36.548Z,99092.64
2023-04-24T13:05:03.914Z,99086.72
2023-04-24T13:07:30.623Z,99088.98
2023-04-24T13:09:58.831Z,99086.66
2023-04-24T13:12:26.813Z,99091.86
2023-04-24T13:14:54.739Z,99105.54
2023-04-24T13:17:21.684Z,99119.58
2023-04-24T13:19:52.029Z,99122.65
2023-04-24T13:22:22.101Z,99115.41
2023-04-24T13:24:51.743Z,99106.04
2023-04-24T13:27:19.444Z,99108.70
2023-04-24T13:29:46.815Z,99111.69
2023-04-24T13:32:13.624Z,99104.15
2023-04-24T13:34:40.543Z,99102.30
2023-04-24T13:37:07.638Z,99105.37
2023-04-24T13:39:34.378Z,99099.83
2023-04-24T13:42:03.224Z,99096.73
2023-04-24T13:44:31.204Z,99098.94
2023-04-24T13:46:58.926Z,99091.73
2023-04-24T13:49:26.594Z,99085.70
2023-04-24T13:51:54.892Z,99089.78
2023-04-24T13:54:23.180Z,99082.20
2023-04-24T13:56:50.736Z,99080.55
2023-04-24T13:59:17.539Z,99072.89
2023-04-24T14:01:46.036Z,99073.09
2023-04-24T14:04:13.411Z,99076.30
2023-04-24T14:06:40.138Z,99074.02
2023-04-24T14:09:07.400Z,99073.11
2023-04-24T14:11:35.058Z,99070.65
2023-04-24T14:14:01.929Z,99066.23
2023-04-24T14:16:30.129Z,99066.86
2023-04-24T14:18:57.234Z,99063.48
2023-04-24T14:21:23.869Z,99063.76
2023-04-24T14:23:50.730Z,99060.12
2023-04-24T14:26:17.550Z,99059.12
2023-04-24T14:28:44.307Z,99059.45
2023-04-24T14:31:11.007Z,99061.88
2023-04-24T14:33:37.691Z,99060.70
2023-04-24T14:36:06.762Z,99060.02
2023-04-24T14:38:33.812Z,99058.09
2023-04-24T14:43:30.327Z,99048.70
2023-04-24T14:45:57.079Z,99048.63
2023-04-24T14:48:23.807Z,99047.30
2023-04-24T14:50:50.552Z,99044.81
2023-04-24T14:53:17.612Z,99044.11
2023-04-24T14:55:44.363Z,99041.56
2023-04-24T14:58:11.634Z,99034.36
2023-04-24T15:00:38.456Z,99031.70
2023-04-24T15:03:05.862Z,99033.30
2023-04-24T15:05:32.897Z,99034.39
2023-04-24T15:08:00.249Z,99032.03
2023-04-24T15:10:27.021Z,99031.09
2023-04-24T15:12:53.875Z,99025.09
2023-04-24T15:15:20.695Z,99027.56
2023-04-24T15:17:47.381Z,99027.97
2023-04-24T15:20:14.201Z,99027.70
2023-04-24T15:22:40.887Z,99023.69
2023-04-24T15:25:08.368Z,99021.65
2023-04-24T15:27:42.651Z,99017.14
2023-04-24T15:30:10.890Z,99018.57
2023-04-24T15:32:38.379Z,99015.29
2023-04-24T15:35:09.126Z,99013.52
2023-04-24T15:37:39.002Z,99010.90
2023-04-24T15:40:08.455Z,99005.77
2023-04-24T15:42:36.221Z,99008.71
2023-04-24T15:45:04.558Z,99004.45
2023-04-24T15:47:31.602Z,99002.41
2023-04-24T15:49:58.857Z,98997.81
2023-04-24T15:52:26.005Z,98995.79
2023-04-24T15:54:53.134Z,98993.11
2023-04-24T15:57:19.989Z,98988.80
2023-04-24T15:59:46.962Z,98996.23
2023-04-24T16:02:19.439Z,99001.24
2023-04-24T16:04:47.368Z,99007.33
2023-04-24T16:07:15.684Z,99012.79
2023-04-24T16:09:42.780Z,99042.44
2023-04-24T16:12:10.604Z,99056.30
2023-04-24T16:14:38.613Z,99037.30
2023-04-24T16:17:05.995Z,98993.89
2023-04-24T16:19:34.555Z,98973.16
2023-04-24T16:22:03.186Z,98972.81
2023-04-24T16:24:31.161Z,98970.52
2023-04-24T16:26:57.999Z,98968.04
2023-04-24T16:29:24.964Z,98967.50
2023-04-24T16:31:51.859Z,98966.35
2023-04-24T16:34:18.743Z,98962.00
2023-04-24T16:36:45.593Z,98964.48
2023-04-24T16:39:13.082Z,98965.95
2023-04-24T16:41:39.897Z,98966.33
2023-04-24T16:44:06.656Z,98963.96
2023-04-24T16:46:33.364Z,98964.99
2023-04-24T16:49:00.328Z,98963.46
2023-04-24T16:51:28.013Z,98965.44
2023-04-24T16:53:55.634Z,98967.38
2023-04-24T16:56:22.233Z,98966.73
2023-04-24T16:58:49.218Z,98966.72
2023-04-24T17:01:16.080Z,98966.34
2023-04-24T17:03:43.032Z,98967.98
2023-04-24T17:06:09.896Z,98967.20
2023-04-24T17:08:39.365Z,98964.70
2023-04-24T17:11:06.014Z,98963.88
2023-04-24T17:13:32.619Z,98963.60
2023-04-24T17:15:59.378Z,98964.67
2023-04-24T17:18:26.315Z,98964.66
2023-04-24T17:20:53.591Z,98963.73
2023-04-24T17:23:20.941Z,98963.70
2023-04-24T17:25:47.789Z,98969.61
2023-04-24T17:28:31.862Z,98968.14
2023-04-24T17:30:59.100Z,98967.58
2023-04-24T17:33:30.753Z,98966.80
2023-04-24T17:35:58.230Z,98970.16
2023-04-24T17:38:25.361Z,98971.84
2023-04-24T17:40:53.292Z,98975.39
2023-04-24T17:43:21.115Z,98973.95
2023-04-24T17:45:49.702Z,98974.56
2023-04-24T17:48:17.159Z,98972.70
2023-04-24T17:50:44.416Z,98973.76
2023-04-24T17:53:11.204Z,98973.61
2023-04-24T17:55:45.130Z,98977.25
2023-04-24T17:58:12.645Z,98982.01
2023-04-24T18:00:39.536Z,98983.30
2023-04-24T18:03:07.922Z,98980.23
2023-04-24T18:05:36.603Z,98983.17
2023-04-24T18:08:04.710Z,98981.91
2023-04-24T18:10:33.354Z,98981.88
2023-04-24T18:13:00.012Z,98986.21
2023-04-24T18:15:27.360Z,98989.25
2023-04-24T18:17:54.551Z,98991.59
2023-04-24T18:20:21.535Z,98993.45
2023-04-24T18:22:48.403Z,98996.06
2023-04-24T18:25:15.585Z,98997.47
2023-04-24T18:27:44.145Z,98999.10
2023-04-24T18:30:14.492Z,99001.83
2023-04-24T18:32:42.186Z,99005.56
2023-04-24T18:35:09.977Z,99006.31
2023-04-24T18:37:36.597Z,99004.70
2023-04-24T18:40:03.903Z,99000.18
2023-04-24T18:42:30.767Z,99005.59
2023-04-24T18:45:01.726Z,99009.66
2023-04-24T18:47:29.130Z,99008.29
2023-04-24T18:49:56.194Z,99012.52
2023-04-24T18:52:24.483Z,99013.27
2023-04-24T18:54:51.583Z,99016.12
2023-04-24T18:57:18.537Z,99014.56
2023-04-24T18:59:45.322Z,99014.51
2023-04-24T19:02:12.246Z,99013.98
2023-04-24T19:04:39.215Z,99012.90
2023-04-24T19:07:05.896Z,99016.25
2023-04-24T19:09:32.605Z,99013.30
2023-04-24T19:12:01.496Z,99013.27
2023-04-24T19:14:28.599Z,99009.59
2023-04-24T19:16:56.603Z,99010.80
2023-04-24T19:19:23.877Z,99008.77
2023-04-24T19:21:50.886Z,99008.40
2023-04-24T19:24:19.211Z,99015.98
2023-04-24T19:26:46.263Z,99016.21
2023-04-24T19:29:13.050Z,99015.91
2023-04-24T19:31:39.717Z,99021.83
2023-04-24T19:34:06.852Z,99023.95
2023-04-24T19:36:33.889Z,99022.33
2023-04-24T19:39:01.067Z,99019.80
2023-04-24T19:41:27.913Z,99018.33
2023-04-24T19:43:54.655Z,99013.73
2023-04-24T19:46:21.709Z,99012.41
2023-04-24T19:48:48.717Z,99012.88
2023-04-24T19:51:15.630Z,99014.06
2023-04-24T19:53:43.530Z,99012.80
2023-04-24T19:56:10.685Z,99014.06
2023-04-24T19:58:37.324Z,99019.48
2023-04-24T20:01:05.982Z,99014.61
2023-04-24T20:03:34.327Z,99014.84
2023-04-24T20:06:01.882Z,99013.10
2023-04-24T20:08:28.809Z,99012.23
2023-04-24T20:10:57.882Z,99012.63
2023-04-24T20:13:28.166Z,99008.69
2023-04-24T20:15:55.030Z,99008.60
2023-04-24T20:18:21.779Z,99004.75
2023-04-24T20:20:48.473Z,99004.90
2023-04-24T20:23:15.492Z,99005.75
2023-04-24T20:25:42.119Z,99004.80
2023-04-24T20:28:08.802Z,99003.55
2023-04-24T20:30:35.964Z,99003.64
2023-04-24T20:33:03.453Z,99001.13
2023-04-24T20:35:30.664Z,99002.61
2023-04-24T20:37:59.464Z,98999.54
2023-04-24T20:40:27.174Z,98996.30
2023-04-24T20:42:53.970Z,98992.14
2023-04-24T20:45:21.432Z,98994.34
2023-04-24T20:47:50.097Z,98992.05
2023-04-24T20:50:18.837Z,98996.77
2023-04-24T20:52:45.715Z,99002.98
2023-04-24T20:55:13.340Z,99007.67
2023-04-24T20:57:40.361Z,99011.19
2023-04-24T21:00:08.862Z,99013.29
2023-04-24T21:02:35.915Z,99016.33
2023-04-24T21:05:04.463Z,99012.92
2023-04-24T21:07:31.400Z,99007.84
2023-04-24T21:09:57.963Z,99004.35
2023-04-24T21:12:24.647Z,99007.45
2023-04-24T21:14:51.540Z,99009.39
2023-04-24T21:17:18.768Z,99006.98
2023-04-24T21:19:45.507Z,99006.80
2023-04-24T21:22:12.164Z,99007.00
2023-04-24T21:24:38.797Z,99009.06
2023-04-24T21:27:05.722Z,99014.20
2023-04-24T21:29:33.133Z,99009.30
2023-04-24T21:31:59.854Z,99003.31
2023-04-24T21:34:26.837Z,99003.52
2023-04-24T21:36:53.559Z,99004.81
2023-04-24T21:39:21.071Z,99006.25
2023-04-24T21:41:47.710Z,99007.20
2023-04-24T21:44:14.785Z,99011.06
2023-04-24T21:46:42.818Z,99011.08
2023-04-24T21:49:09.595Z,99013.34
2023-04-24T21:51:36.148Z,99016.08
2023-04-24T21:54:02.742Z,99019.91
2023-04-24T21:56:29.777Z,99021.59
2023-04-24T21:58:56.762Z,99023.59
2023-04-24T22:01:23.430Z,99024.02
2023-04-24T22:03:50.807Z,99026.64
2023-04-24T22:06:17.758Z,99024.08
2023-04-24T22:08:47.638Z,99026.42
2023-04-24T22:11:25.697Z,99027.52
2023-04-24T22:13:54.546Z,99024.94
2023-04-24T22:16:23.957Z,99021.96
2023-04-24T22:18:53.716Z,99021.45
2023-04-24T22:21:21.646Z,99024.67
2023-04-24T22:23:48.644Z,99023.02
2023-04-24T22:26:15.664Z,99020.69
2023-04-24T22:28:42.276Z,99019.60
2023-04-24T22:31:09.310Z,99016.94
2023-04-24T22:33:36.018Z,99016.24
2023-04-24T22:36:03.508Z,99017.42
2023-04-24T22:38:30.049Z,99020.08
2023-04-24T22:40:56.672Z,99018.43
2023-04-24T22:43:23.294Z,99017.11
2023-04-24T22:45:50.046Z,99017.19
2023-04-24T22:48:16.911Z,99017.80
2023-04-24T22:50:43.448Z,99019.36
2023-04-24T22:53:10.049Z,99020.20
2023-04-24T22:55:36.728Z,99020.09
2023-04-24T22:58:03.352Z,99023.60
2023-04-24T23:00:30.002Z,99020.91
2023-04-24T23:02:56.849Z,99016.36
2023-04-24T23:05:25.229Z,99018.23
2023-04-24T23:07:51.971Z,99012.90
2023-04-24T23:10:18.597Z,99013.34
2023-04-24T23:12:45.330Z,99011.60
2023-04-24T23:15:12.080Z,99013.92
2023-04-24T23:17:41.477Z,99013.41
2023-04-24T23:20:13.692Z,99016.02
2023-04-24T23:22:40.941Z,99012.98
2023-04-24T23:25:11.269Z,99015.55
2023-04-24T23:27:38.158Z,99014.56
2023-04-24T23:30:06.653Z,99013.83
2023-04-24T23:32:33.256Z,99019.04
2023-04-24T23:34:59.823Z,99016.57
2023-04-24T23:37:26.738Z,99013.73
2023-04-24T23:39:53.439Z,99015.02
2023-04-24T23:42:20.027Z,99016.06
2023-04-24T23:44:46.589Z,99019.38
2023-04-24T23:47:13.162Z,99018.88
2023-04-24T23:49:39.704Z,99021.11
2023-04-24T23:52:06.323Z,99015.11
2023-04-24T23:54:33.004Z,99015.11
2023-04-24T23:56:59.675Z,99009.83
2023-04-24T23:59:26.244Z,99007.55
